DLH5MN EDDM-EIDW
Flight info
| Callsign | DLH5MN |
|---|---|
| Flight time | N/A |
| Altitude | 36000 |
| Route | GIVMI1N/26R GIVMI Y101 IBAGA DCT MASEK DCT MAPOX DCT RAVLO Y70 OTBED L60 PENIL UL28 LELDO M145 BAGSO BAGSO4L |
| Aircraft | A320/M-SDE2E3FGIJ1LORWXYZ/HB1 |
Departure
| Time | N/A |
|---|---|
| Airport | Munich Airport (EDDM) |
Arrival
| Time | 2026-05-05 19:24 |
|---|---|
| Airport | Dublin Airport (EIDW) |
| Time | Latitude | Longitude | Altitude | Speed | Heading |
|---|---|---|---|---|---|
| 2026-05-05 18:40 | 53.35626 | -0.63765 | 38035 ft | 427 kts | 278° |
| 2026-05-05 18:40 | 53.36110 | -0.68676 | 38040 ft | 427 kts | 278° |
| 2026-05-05 18:41 | 53.37072 | -0.78455 | 38039 ft | 427 kts | 278° |
| 2026-05-05 18:41 | 53.38027 | -0.88303 | 38040 ft | 427 kts | 278° |
| 2026-05-05 18:42 | 53.38982 | -0.98141 | 38027 ft | 427 kts | 278° |
| 2026-05-05 18:42 | 53.39926 | -1.07934 | 38042 ft | 427 kts | 278° |
| 2026-05-05 18:43 | 53.40855 | -1.17769 | 38033 ft | 427 kts | 278° |
| 2026-05-05 18:43 | 53.41773 | -1.27558 | 38034 ft | 426 kts | 277° |
| 2026-05-05 18:44 | 53.42687 | -1.37422 | 38040 ft | 426 kts | 277° |
| 2026-05-05 18:44 | 53.43585 | -1.47177 | 38037 ft | 426 kts | 277° |
| 2026-05-05 18:45 | 53.44483 | -1.57005 | 38035 ft | 426 kts | 277° |
| 2026-05-05 18:45 | 53.45376 | -1.66822 | 38038 ft | 425 kts | 277° |
| 2026-05-05 18:46 | 53.46245 | -1.76589 | 38045 ft | 425 kts | 277° |
| 2026-05-05 18:46 | 53.47115 | -1.86394 | 38050 ft | 425 kts | 277° |
| 2026-05-05 18:47 | 53.47981 | -1.96222 | 38035 ft | 425 kts | 277° |
| 2026-05-05 18:47 | 53.48831 | -2.06047 | 38042 ft | 424 kts | 277° |
| 2026-05-05 18:48 | 53.49668 | -2.15813 | 38036 ft | 424 kts | 277° |
| 2026-05-05 18:48 | 53.50514 | -2.25646 | 38030 ft | 425 kts | 277° |
| 2026-05-05 18:49 | 53.51349 | -2.35427 | 38046 ft | 425 kts | 277° |
| 2026-05-05 18:49 | 53.52177 | -2.45304 | 38046 ft | 425 kts | 277° |
| 2026-05-05 18:50 | 53.52992 | -2.55097 | 38036 ft | 425 kts | 277° |
| 2026-05-05 18:50 | 53.53799 | -2.64991 | 37698 ft | 426 kts | 277° |
| 2026-05-05 18:51 | 53.54199 | -2.69916 | 37424 ft | 425 kts | 277° |
| 2026-05-05 18:51 | 53.54590 | -2.74784 | 37154 ft | 425 kts | 277° |
| 2026-05-05 18:51 | 53.54984 | -2.79721 | 36892 ft | 424 kts | 277° |
| 2026-05-05 18:51 | 53.55372 | -2.84633 | 36630 ft | 424 kts | 277° |
| 2026-05-05 18:52 | 53.55762 | -2.89556 | 36371 ft | 424 kts | 277° |
| 2026-05-05 18:52 | 53.56150 | -2.94467 | 36118 ft | 423 kts | 276° |
| 2026-05-05 18:52 | 53.56535 | -2.99357 | 35864 ft | 420 kts | 276° |
| 2026-05-05 18:52 | 53.56919 | -3.04233 | 35612 ft | 418 kts | 276° |
| 2026-05-05 18:53 | 53.57290 | -3.09005 | 35368 ft | 416 kts | 276° |
| 2026-05-05 18:53 | 53.57662 | -3.13829 | 35122 ft | 412 kts | 276° |
| 2026-05-05 18:53 | 53.58030 | -3.18609 | 34878 ft | 409 kts | 276° |
| 2026-05-05 18:53 | 53.58394 | -3.23367 | 34635 ft | 407 kts | 276° |
| 2026-05-05 18:54 | 53.58747 | -3.28020 | 34391 ft | 403 kts | 276° |
| 2026-05-05 18:54 | 53.59101 | -3.32689 | 33948 ft | 400 kts | 276° |
| 2026-05-05 18:54 | 53.59454 | -3.37331 | 33429 ft | 396 kts | 276° |
| 2026-05-05 18:54 | 53.59799 | -3.41916 | 32960 ft | 392 kts | 276° |
| 2026-05-05 18:55 | 53.60140 | -3.46453 | 32493 ft | 388 kts | 276° |
| 2026-05-05 18:55 | 53.60471 | -3.50885 | 32033 ft | 384 kts | 276° |
| 2026-05-05 18:55 | 53.60798 | -3.55343 | 31581 ft | 380 kts | 275° |
| 2026-05-05 18:55 | 53.61117 | -3.59744 | 31130 ft | 377 kts | 275° |
| 2026-05-05 18:56 | 53.61444 | -3.64111 | 30682 ft | 374 kts | 278° |
| 2026-05-05 18:56 | 53.62083 | -3.68350 | 30236 ft | 372 kts | 288° |
| 2026-05-05 18:56 | 53.63034 | -3.72353 | 29745 ft | 370 kts | 290° |
| 2026-05-05 18:56 | 53.64000 | -3.76339 | 29305 ft | 364 kts | 290° |
| 2026-05-05 18:57 | 53.64948 | -3.80284 | 28880 ft | 360 kts | 290° |
| 2026-05-05 18:57 | 53.65874 | -3.84171 | 28477 ft | 354 kts | 290° |
| 2026-05-05 18:57 | 53.66784 | -3.88007 | 28075 ft | 350 kts | 290° |
| 2026-05-05 18:57 | 53.67673 | -3.91749 | 27684 ft | 346 kts | 290° |
| 2026-05-05 18:58 | 53.68567 | -3.95504 | 27272 ft | 342 kts | 290° |
| 2026-05-05 18:58 | 53.69450 | -3.99217 | 26867 ft | 339 kts | 290° |
| 2026-05-05 18:58 | 53.70323 | -4.02892 | 26453 ft | 336 kts | 290° |
| 2026-05-05 18:58 | 53.71169 | -4.06548 | 26044 ft | 332 kts | 287° |
| 2026-05-05 18:59 | 53.71700 | -4.10323 | 25626 ft | 329 kts | 277° |
| 2026-05-05 18:59 | 53.71877 | -4.14157 | 25205 ft | 326 kts | 273° |
| 2026-05-05 18:59 | 53.72016 | -4.17936 | 24788 ft | 325 kts | 274° |
| 2026-05-05 18:59 | 53.72157 | -4.21737 | 24361 ft | 324 kts | 274° |
| 2026-05-05 19:00 | 53.72298 | -4.25536 | 23915 ft | 323 kts | 274° |
| 2026-05-05 19:00 | 53.72440 | -4.29322 | 23467 ft | 322 kts | 274° |
| 2026-05-05 19:00 | 53.72581 | -4.33100 | 23004 ft | 320 kts | 274° |
| 2026-05-05 19:00 | 53.72717 | -4.36794 | 22585 ft | 317 kts | 274° |
| 2026-05-05 19:01 | 53.72850 | -4.40511 | 22169 ft | 315 kts | 274° |
| 2026-05-05 19:01 | 53.72980 | -4.44164 | 21758 ft | 313 kts | 274° |
| 2026-05-05 19:01 | 53.73111 | -4.47826 | 21353 ft | 311 kts | 274° |
| 2026-05-05 19:01 | 53.73242 | -4.51471 | 20950 ft | 309 kts | 274° |
| 2026-05-05 19:02 | 53.73372 | -4.55091 | 20549 ft | 308 kts | 274° |
| 2026-05-05 19:02 | 53.73501 | -4.58699 | 20157 ft | 307 kts | 274° |
| 2026-05-05 19:02 | 53.73625 | -4.62261 | 19764 ft | 306 kts | 274° |
| 2026-05-05 19:02 | 53.73749 | -4.65855 | 19370 ft | 305 kts | 274° |
| 2026-05-05 19:03 | 53.73870 | -4.69445 | 18977 ft | 305 kts | 274° |
| 2026-05-05 19:03 | 53.73989 | -4.73022 | 18584 ft | 305 kts | 274° |
| 2026-05-05 19:03 | 53.74106 | -4.76596 | 18171 ft | 305 kts | 274° |
| 2026-05-05 19:03 | 53.74224 | -4.80174 | 17762 ft | 304 kts | 274° |
| 2026-05-05 19:04 | 53.74220 | -4.83763 | 17081 ft | 312 kts | 262° |
| 2026-05-05 19:04 | 53.73487 | -4.87229 | 16207 ft | 327 kts | 242° |
| 2026-05-05 19:04 | 53.72313 | -4.90591 | 15633 ft | 331 kts | 241° |
| 2026-05-05 19:04 | 53.71136 | -4.93895 | 15316 ft | 326 kts | 241° |
| 2026-05-05 19:05 | 53.69973 | -4.97148 | 14720 ft | 321 kts | 241° |
| 2026-05-05 19:05 | 53.68839 | -5.00323 | 14327 ft | 308 kts | 241° |
| 2026-05-05 19:05 | 53.67764 | -5.03330 | 13969 ft | 296 kts | 241° |
| 2026-05-05 19:05 | 53.66718 | -5.06261 | 13597 ft | 285 kts | 241° |
| 2026-05-05 19:06 | 53.65714 | -5.09074 | 13252 ft | 274 kts | 241° |
| 2026-05-05 19:06 | 53.64735 | -5.11818 | 12922 ft | 273 kts | 241° |
| 2026-05-05 19:06 | 53.63756 | -5.14562 | 12579 ft | 273 kts | 241° |
| 2026-05-05 19:06 | 53.62789 | -5.17274 | 12258 ft | 272 kts | 241° |
| 2026-05-05 19:07 | 53.61809 | -5.20019 | 11911 ft | 272 kts | 241° |
| 2026-05-05 19:07 | 53.60828 | -5.22758 | 11564 ft | 272 kts | 241° |
| 2026-05-05 19:07 | 53.59848 | -5.25495 | 11217 ft | 272 kts | 241° |
| 2026-05-05 19:07 | 53.58878 | -5.28194 | 10870 ft | 273 kts | 241° |
| 2026-05-05 19:08 | 53.57894 | -5.30929 | 10520 ft | 273 kts | 241° |
| 2026-05-05 19:08 | 53.56909 | -5.33667 | 10165 ft | 273 kts | 241° |
| 2026-05-05 19:08 | 53.55919 | -5.36418 | 9785 ft | 274 kts | 241° |
| 2026-05-05 19:08 | 53.54927 | -5.39170 | 9398 ft | 273 kts | 241° |
| 2026-05-05 19:09 | 53.53950 | -5.41870 | 9033 ft | 273 kts | 241° |
| 2026-05-05 19:09 | 53.52962 | -5.44598 | 8645 ft | 271 kts | 241° |
| 2026-05-05 19:09 | 53.51981 | -5.47300 | 8319 ft | 268 kts | 241° |
| 2026-05-05 19:09 | 53.51036 | -5.49897 | 8191 ft | 257 kts | 241° |
| 2026-05-05 19:10 | 53.50046 | -5.52336 | 8071 ft | 250 kts | 229° |
| 2026-05-05 19:10 | 53.48648 | -5.54189 | 8017 ft | 267 kts | 215° |
| 2026-05-05 19:10 | 53.47096 | -5.55804 | 7897 ft | 258 kts | 213° |
| 2026-05-05 19:10 | 53.45572 | -5.57330 | 7667 ft | 252 kts | 212° |
| 2026-05-05 19:11 | 53.43935 | -5.58322 | 7439 ft | 252 kts | 188° |
| 2026-05-05 19:11 | 53.42178 | -5.58225 | 7293 ft | 253 kts | 176° |
| 2026-05-05 19:11 | 53.40444 | -5.57943 | 7169 ft | 253 kts | 176° |
| 2026-05-05 19:11 | 53.38690 | -5.57673 | 7044 ft | 252 kts | 179° |
| 2026-05-05 19:12 | 53.36979 | -5.58109 | 6914 ft | 247 kts | 205° |
| 2026-05-05 19:12 | 53.35573 | -5.59676 | 6791 ft | 242 kts | 230° |
| 2026-05-05 19:12 | 53.34717 | -5.62025 | 6660 ft | 233 kts | 255° |
| 2026-05-05 19:12 | 53.34457 | -5.64623 | 6546 ft | 222 kts | 267° |
| 2026-05-05 19:13 | 53.34311 | -5.67131 | 6419 ft | 215 kts | 267° |
| 2026-05-05 19:13 | 53.34163 | -5.69582 | 6286 ft | 208 kts | 267° |
| 2026-05-05 19:13 | 53.34017 | -5.71963 | 6152 ft | 203 kts | 267° |
| 2026-05-05 19:13 | 53.33876 | -5.74298 | 5980 ft | 201 kts | 268° |
| 2026-05-05 19:14 | 53.33736 | -5.76632 | 5727 ft | 201 kts | 268° |
| 2026-05-05 19:14 | 53.33641 | -5.78177 | 5600 ft | 199 kts | 268° |
| 2026-05-05 19:14 | 53.33662 | -5.81106 | 5453 ft | 181 kts | 284° |
| 2026-05-05 19:14 | 53.33933 | -5.83121 | 5230 ft | 176 kts | 282° |
| 2026-05-05 19:15 | 53.34108 | -5.84427 | 5108 ft | 170 kts | 298° |
| 2026-05-05 19:15 | 53.34981 | -5.85569 | 5073 ft | 165 kts | 353° |
| 2026-05-05 19:15 | 53.36110 | -5.85161 | 5114 ft | 174 kts | 29° |
| 2026-05-05 19:15 | 53.36859 | -5.83557 | 5098 ft | 183 kts | 68° |
| 2026-05-05 19:16 | 53.36958 | -5.81433 | 5104 ft | 188 kts | 86° |
| 2026-05-05 19:16 | 53.36660 | -5.79299 | 5051 ft | 194 kts | 125° |
| 2026-05-05 19:16 | 53.35525 | -5.78141 | 5040 ft | 202 kts | 175° |
| 2026-05-05 19:16 | 53.34187 | -5.78652 | 5030 ft | 199 kts | 220° |
| 2026-05-05 19:17 | 53.33433 | -5.80464 | 5027 ft | 189 kts | 262° |
| 2026-05-05 19:17 | 53.33548 | -5.82575 | 4874 ft | 180 kts | 299° |
| 2026-05-05 19:17 | 53.34335 | -5.84139 | 4666 ft | 176 kts | 317° |
| 2026-05-05 19:17 | 53.35194 | -5.85598 | 4391 ft | 175 kts | 316° |
| 2026-05-05 19:18 | 53.36040 | -5.87074 | 4123 ft | 174 kts | 316° |
| 2026-05-05 19:18 | 53.36877 | -5.88542 | 4067 ft | 174 kts | 316° |
| 2026-05-05 19:18 | 53.37709 | -5.89998 | 4020 ft | 175 kts | 316° |
| 2026-05-05 19:18 | 53.38552 | -5.91473 | 3953 ft | 175 kts | 316° |
| 2026-05-05 19:19 | 53.39386 | -5.92929 | 3876 ft | 174 kts | 317° |
| 2026-05-05 19:19 | 53.40112 | -5.94564 | 3801 ft | 178 kts | 300° |
| 2026-05-05 19:19 | 53.40447 | -5.96585 | 3599 ft | 183 kts | 281° |
| 2026-05-05 19:19 | 53.40550 | -5.98669 | 3394 ft | 176 kts | 280° |
| 2026-05-05 19:20 | 53.40655 | -6.00696 | 3159 ft | 172 kts | 280° |
| 2026-05-05 19:20 | 53.40764 | -6.02661 | 2927 ft | 166 kts | 281° |
| 2026-05-05 19:20 | 53.40871 | -6.04545 | 2705 ft | 163 kts | 281° |
| 2026-05-05 19:20 | 53.40978 | -6.06433 | 2504 ft | 161 kts | 280° |
| 2026-05-05 19:21 | 53.41084 | -6.08296 | 2263 ft | 155 kts | 279° |
| 2026-05-05 19:21 | 53.41181 | -6.10020 | 2048 ft | 144 kts | 279° |
| 2026-05-05 19:21 | 53.41273 | -6.11651 | 1854 ft | 140 kts | 279° |
| 2026-05-05 19:21 | 53.41365 | -6.13269 | 1664 ft | 139 kts | 279° |
| 2026-05-05 19:22 | 53.41457 | -6.14881 | 1467 ft | 139 kts | 279° |
| 2026-05-05 19:22 | 53.41547 | -6.16492 | 1261 ft | 138 kts | 279° |
| 2026-05-05 19:22 | 53.41638 | -6.18099 | 1052 ft | 139 kts | 278° |
| 2026-05-05 19:22 | 53.41731 | -6.19713 | 858 ft | 140 kts | 275° |
| 2026-05-05 19:23 | 53.41819 | -6.21348 | 684 ft | 141 kts | 276° |
| 2026-05-05 19:23 | 53.41911 | -6.22989 | 510 ft | 142 kts | 275° |
| 2026-05-05 19:23 | 53.42003 | -6.24621 | 315 ft | 142 kts | 275° |
| 2026-05-05 19:23 | 53.42090 | -6.26227 | 211 ft | 126 kts | 277° |
| 2026-05-05 19:24 | 53.42143 | -6.27197 | 209 ft | 51 kts | 275° |
| 2026-05-05 19:24 | 53.42174 | -6.27688 | 209 ft | 30 kts | 281° |
| 2026-05-05 19:24 | 53.42239 | -6.27976 | 215 ft | 20 kts | 301° |
| 2026-05-05 19:24 | 53.42298 | -6.28118 | 211 ft | 11 kts | 316° |
| 2026-05-05 19:25 | 53.42361 | -6.28116 | 214 ft | 9 kts | 51° |
| 2026-05-05 19:25 | 53.42362 | -6.28021 | 215 ft | 8 kts | 96° |
| 2026-05-05 19:25 | 53.42355 | -6.27924 | 211 ft | 10 kts | 96° |
| 2026-05-05 19:25 | 53.42348 | -6.27785 | 216 ft | 14 kts | 95° |
| 2026-05-05 19:26 | 53.42337 | -6.27594 | 211 ft | 18 kts | 95° |
| 2026-05-05 19:26 | 53.42325 | -6.27359 | 211 ft | 22 kts | 95° |
| 2026-05-05 19:26 | 53.42309 | -6.27089 | 215 ft | 24 kts | 95° |
| 2026-05-05 19:26 | 53.42294 | -6.26796 | 211 ft | 26 kts | 97° |
| 2026-05-05 19:27 | 53.42277 | -6.26491 | 219 ft | 26 kts | 95° |
| 2026-05-05 19:27 | 53.42261 | -6.26190 | 211 ft | 24 kts | 95° |
| 2026-05-05 19:27 | 53.42244 | -6.25903 | 211 ft | 25 kts | 95° |
| 2026-05-05 19:27 | 53.42229 | -6.25625 | 211 ft | 24 kts | 95° |
| 2026-05-05 19:28 | 53.42214 | -6.25357 | 211 ft | 21 kts | 95° |
| 2026-05-05 19:28 | 53.42203 | -6.25147 | 211 ft | 18 kts | 95° |
| 2026-05-05 19:28 | 53.42229 | -6.25004 | 211 ft | 14 kts | 51° |
| 2026-05-05 19:28 | 53.42304 | -6.24868 | 213 ft | 16 kts | 44° |
| 2026-05-05 19:29 | 53.42379 | -6.24739 | 215 ft | 15 kts | 46° |
| 2026-05-05 19:29 | 53.42430 | -6.24607 | 214 ft | 13 kts | 64° |
| 2026-05-05 19:29 | 53.42472 | -6.24483 | 211 ft | 11 kts | 52° |
| 2026-05-05 19:29 | 53.42518 | -6.24420 | 211 ft | 5 kts | 17° |
| 2026-05-05 19:30 | 53.42549 | -6.24432 | 211 ft | 4 kts | 329° |
| 2026-05-05 19:30 | 53.42569 | -6.24461 | 218 ft | 3 kts | 303° |
| 2026-05-05 19:30 | 53.42580 | -6.24489 | 211 ft | 2 kts | 306° |
| 2026-05-05 19:30 | 53.42584 | -6.24498 | 211 ft | 1 kts | 306° |
| 2026-05-05 19:31 | 53.42586 | -6.24502 | 211 ft | 1 kts | 305° |
| 2026-05-05 19:31 | 53.42587 | -6.24505 | 211 ft | 0 kts | 305° |